createdAt,value
2022-12-25T00:00:00.289Z,7.0
2022-12-25T00:10:00.255Z,6.7
2022-12-25T00:20:00.741Z,6.5
2022-12-25T00:30:00.235Z,6.6
2022-12-25T00:40:00.279Z,6.3
2022-12-25T00:50:00.231Z,6.0
2022-12-25T01:00:00.287Z,6.3
2022-12-25T01:10:00.251Z,6.7
2022-12-25T01:20:00.737Z,6.9
2022-12-25T01:30:00.280Z,7.0
2022-12-25T01:40:00.322Z,6.9
2022-12-25T01:50:00.248Z,6.7
2022-12-25T02:00:00.320Z,6.4
2022-12-25T02:10:00.249Z,6.2
2022-12-25T02:20:00.247Z,6.0
2022-12-25T02:30:00.324Z,6.0
2022-12-25T02:40:00.478Z,5.8
2022-12-25T02:50:00.293Z,5.7
2022-12-25T03:00:00.319Z,6.3
2022-12-25T03:10:00.262Z,6.6
2022-12-25T03:20:00.507Z,6.9
2022-12-25T03:30:00.825Z,7.0
2022-12-25T03:40:00.496Z,7.2
2022-12-25T03:50:00.624Z,7.0
2022-12-25T04:00:00.641Z,6.9
2022-12-25T04:10:00.421Z,6.7
2022-12-25T04:20:00.575Z,6.4
2022-12-25T04:30:00.601Z,6.1
2022-12-25T04:40:00.623Z,6.1
2022-12-25T04:50:00.473Z,6.1
2022-12-25T05:00:00.346Z,5.6
2022-12-25T05:10:00.241Z,5.5
2022-12-25T05:20:00.253Z,5.4
2022-12-25T05:30:00.275Z,5.3
2022-12-25T05:40:00.370Z,5.7
2022-12-25T05:50:00.237Z,5.8
2022-12-25T06:00:00.324Z,6.0
2022-12-25T06:10:00.402Z,6.1
2022-12-25T06:20:00.262Z,5.7
2022-12-25T06:30:00.275Z,4.8
2022-12-25T06:40:00.297Z,3.9
2022-12-25T06:50:00.240Z,3.4
2022-12-25T07:00:00.372Z,3.4
2022-12-25T07:10:00.306Z,3.5
2022-12-25T07:20:00.268Z,4.1
2022-12-25T07:30:00.252Z,4.9
2022-12-25T07:40:00.276Z,5.8
2022-12-25T07:50:00.265Z,6.6
2022-12-25T08:00:00.314Z,7.1
2022-12-25T08:10:00.255Z,7.6
2022-12-25T08:20:00.275Z,7.8
2022-12-25T08:30:00.264Z,8.2
2022-12-25T08:40:00.286Z,8.5
2022-12-25T08:50:00.271Z,8.6
2022-12-25T09:00:00.290Z,8.9
2022-12-25T09:10:00.241Z,9.9
2022-12-25T09:20:00.287Z,10.7
2022-12-25T09:30:00.301Z,10.9
2022-12-25T09:40:00.268Z,11.6
2022-12-25T09:50:00.264Z,12.2
2022-12-25T10:00:00.273Z,12.6
2022-12-25T10:10:00.268Z,12.8
2022-12-25T10:20:00.320Z,12.9
2022-12-25T10:30:00.259Z,12.6
2022-12-25T10:40:00.248Z,13.7
2022-12-25T10:50:00.260Z,14.3
2022-12-25T11:00:00.269Z,14.6
2022-12-25T11:10:04.638Z,14.9
2022-12-25T11:20:00.279Z,15.1
2022-12-25T11:30:00.299Z,15.2
2022-12-25T11:40:00.261Z,15.8
2022-12-25T11:50:01.118Z,15.9
2022-12-25T12:00:00.283Z,15.2
2022-12-25T12:10:00.250Z,15.1
2022-12-25T12:20:00.307Z,14.9
2022-12-25T12:30:00.240Z,14.4
2022-12-25T12:40:00.281Z,13.0
2022-12-25T12:50:00.303Z,12.7
2022-12-25T13:00:06.551Z,12.8
2022-12-25T13:10:00.273Z,13.1
2022-12-25T13:20:00.344Z,14.2
2022-12-25T13:30:00.292Z,14.3
2022-12-25T13:40:00.303Z,13.9
2022-12-25T13:50:00.245Z,13.3
2022-12-25T14:00:00.354Z,12.7
2022-12-25T14:10:00.260Z,12.2
2022-12-25T14:20:05.981Z,11.8
2022-12-25T14:30:00.312Z,11.5
2022-12-25T14:40:00.264Z,11.2
2022-12-25T14:50:00.267Z,10.9
2022-12-25T15:00:00.482Z,10.8
2022-12-25T15:10:36.468Z,10.7
2022-12-25T15:20:00.247Z,10.2
2022-12-25T15:30:09.850Z,9.9
2022-12-25T15:40:00.248Z,9.8
2022-12-25T15:50:00.306Z,9.7
2022-12-25T16:00:00.309Z,9.6
2022-12-25T16:10:00.291Z,9.4
2022-12-25T16:20:00.334Z,9.1
2022-12-25T16:30:00.327Z,8.7
2022-12-25T16:40:00.391Z,8.6
2022-12-25T16:50:00.454Z,8.2
2022-12-25T17:00:00.311Z,8.1
2022-12-25T17:10:00.246Z,8.4
2022-12-25T17:20:00.260Z,8.3
2022-12-25T17:30:00.236Z,8.5
2022-12-25T17:40:00.305Z,8.5
2022-12-25T17:50:00.278Z,8.4
2022-12-25T18:00:00.350Z,7.8
2022-12-25T18:10:00.244Z,7.8
2022-12-25T18:20:00.251Z,7.4
2022-12-25T18:30:00.280Z,7.0
2022-12-25T18:40:00.266Z,7.1
2022-12-25T18:50:00.274Z,7.4
2022-12-25T19:00:00.307Z,7.9
2022-12-25T19:10:00.246Z,8.6
2022-12-25T19:20:00.243Z,9.0
2022-12-25T19:30:00.289Z,9.2
2022-12-25T19:40:00.312Z,9.2
2022-12-25T19:50:03.145Z,9.3
2022-12-25T20:00:00.454Z,9.3
2022-12-25T20:10:00.245Z,9.5
2022-12-25T20:20:00.249Z,9.5
2022-12-25T20:30:00.267Z,9.5
2022-12-25T20:40:00.344Z,9.4
2022-12-25T20:50:00.254Z,9.3
2022-12-25T21:00:00.284Z,9.4
2022-12-25T21:10:00.272Z,9.4
2022-12-25T21:20:00.263Z,9.5
2022-12-25T21:30:00.291Z,9.5
2022-12-25T21:40:00.266Z,9.5
2022-12-25T21:50:00.248Z,9.5
2022-12-25T22:00:00.262Z,9.6
2022-12-25T22:10:00.278Z,9.6
2022-12-25T22:20:00.253Z,9.4
2022-12-25T22:30:00.272Z,9.2
2022-12-25T22:40:00.282Z,8.9
2022-12-25T22:50:00.236Z,9.0
2022-12-25T23:00:00.359Z,9.0
2022-12-25T23:10:00.276Z,9.0
2022-12-25T23:20:00.245Z,9.0
2022-12-25T23:30:00.333Z,8.9
2022-12-25T23:40:00.284Z,8.7
2022-12-25T23:50:00.311Z,8.4
